Windsorville, Connecticut
Current Conditions -  °F | °C
As of 2:51 PM on Thursday 23 Oct 2014 (Local Time) from KBDL Reporting Station
Drizzle Drizzle  
Wind Chill: 12°   Ceiling: 1600
Heat Index: 12°   Visibility: 7mi
Dew Point:   Wind: 16mph
Humidity: 77%   Direction: 360°N
Pressure: 29.65"   Gusts: 23mph
Location:  41.9042°N, 72.5445°W
Report Text: KBDL 231851Z 36014G20KT 7SM -DZ OVC016 12/08 A2965 RMK AO2 PK WND 36027/1754 SLP040 DZE05B40 P0000 T01220083
Loading
Personal Weather Stations






























Interactive Weather Map
Tropical Storm Tracking
New forecast layout! Learn more

10-Day Weather Forecast

Advertisements
Track Severe Weather on mobile